Pagina principale
METAR-TAF:

METAR-TAF

Aeroporti :

Piattaforma petrolifera

Hoorn-a, Paesi Bassi

latitudine: 52-55-05N, longitudine: 4-09-01E, altezza: 41 m

Osservazione

Il bollettino è stato emesso 29 minuti fa, alle 06:55 UTC
Vento 14 kt da sud
Temperature 17°C
Umidità 94%
Pressione 1009 hPa
Visibilità 10 km o più

METAR: EHQE 180655Z AUTO 17014KT 9999 NSC 17/16 Q1009 W///H///

Ora: 09:24 (07:24 UTC)


TAF: mancante

Osservazioni e previsioni meteorologiche di più di 4000 aeroporti (messaggi METAR e TAF).

Le stazioni disponibili sono rappresentate dai dischi gialli e rossi sulla carta.

Puntare il mouse per vedere il nome della stazione.

Clicca sopra per visualizzare le osservazioni e previsioni meteorologiche.

Per cambiare la mappa : fare clic sui pulsanti verdi con una croce nera per ingrandire, il pulsante verde con un trattino per diminuire, o sulla freccia verde per le mappe adiacenti.


METAR-TAF: